sensor_id;sensor_type;location;lat;lon;timestamp;pressure;altitude;pressure_sealevel;temperature;humidity
2549;BME280;1284;53.520;10.248;2023-03-26T00:01:08;99422.44;;;10.10;100.00
2549;BME280;1284;53.520;10.248;2023-03-26T00:03:35;99426.59;;;10.00;100.00
2549;BME280;1284;53.520;10.248;2023-03-26T00:06:11;99435.91;;;10.27;100.00
2549;BME280;1284;53.520;10.248;2023-03-26T00:08:38;99442.81;;;10.28;100.00
2549;BME280;1284;53.520;10.248;2023-03-26T00:11:06;99434.28;;;9.98;100.00
2549;BME280;1284;53.520;10.248;2023-03-26T00:13:32;99439.66;;;10.05;100.00
2549;BME280;1284;53.520;10.248;2023-03-26T00:15:58;99445.03;;;9.98;100.00
2549;BME280;1284;53.520;10.248;2023-03-26T00:18:24;99442.81;;;10.25;100.00
2549;BME280;1284;53.520;10.248;2023-03-26T00:20:58;99453.13;;;10.05;100.00
2549;BME280;1284;53.520;10.248;2023-03-26T00:23:25;99451.63;;;10.11;100.00
2549;BME280;1284;53.520;10.248;2023-03-26T00:25:51;99460.38;;;9.94;100.00
2549;BME280;1284;53.520;10.248;2023-03-26T00:28:18;99464.25;;;10.03;100.00
2549;BME280;1284;53.520;10.248;2023-03-26T00:30:56;99466.56;;;10.05;100.00
2549;BME280;1284;53.520;10.248;2023-03-26T00:33:22;99465.13;;;10.25;100.00
2549;BME280;1284;53.520;10.248;2023-03-26T00:35:53;99465.13;;;10.29;100.00
2549;BME280;1284;53.520;10.248;2023-03-26T00:38:20;99466.66;;;10.33;100.00
2549;BME280;1284;53.520;10.248;2023-03-26T00:40:47;99476.53;;;9.97;100.00
2549;BME280;1284;53.520;10.248;2023-03-26T00:43:15;99469.63;;;10.00;100.00
2549;BME280;1284;53.520;10.248;2023-03-26T00:45:49;99477.16;;;9.63;100.00
2549;BME280;1284;53.520;10.248;2023-03-26T00:48:16;99475.75;;;9.93;100.00
2549;BME280;1284;53.520;10.248;2023-03-26T00:50:43;99475.75;;;9.93;100.00
2549;BME280;1284;53.520;10.248;2023-03-26T00:53:10;99472.56;;;9.60;100.00
2549;BME280;1284;53.520;10.248;2023-03-26T00:55:40;99471.84;;;9.80;100.00
2549;BME280;1284;53.520;10.248;2023-03-26T00:58:06;99480.34;;;9.86;100.00
2549;BME280;1284;53.520;10.248;2023-03-26T01:00:38;99471.16;;;10.04;100.00
2549;BME280;1284;53.520;10.248;2023-03-26T01:03:06;99475.00;;;10.00;100.00
2549;BME280;1284;53.520;10.248;2023-03-26T01:08:22;99486.53;;;10.00;100.00
2549;BME280;1284;53.520;10.248;2023-03-26T01:10:47;99478.41;;;9.83;100.00
2549;BME280;1284;53.520;10.248;2023-03-26T01:13:21;99495.69;;;9.82;100.00
2549;BME280;1284;53.520;10.248;2023-03-26T01:15:48;99498.81;;;9.91;100.00
2549;BME280;1284;53.520;10.248;2023-03-26T01:18:20;99495.69;;;9.85;100.00
2549;BME280;1284;53.520;10.248;2023-03-26T01:20:53;99497.56;;;9.74;100.00
2549;BME280;1284;53.520;10.248;2023-03-26T01:23:26;99496.47;;;9.93;100.00
2549;BME280;1284;53.520;10.248;2023-03-26T01:26:07;99503.00;;;9.88;100.00
2549;BME280;1284;53.520;10.248;2023-03-26T01:28:36;99509.56;;;9.91;100.00
2549;BME280;1284;53.520;10.248;2023-03-26T01:31:27;99501.53;;;10.05;100.00
2549;BME280;1284;53.520;10.248;2023-03-26T01:34:17;99519.56;;;9.94;100.00
2549;BME280;1284;53.520;10.248;2023-03-26T01:39:28;99522.16;;;9.73;100.00
2549;BME280;1284;53.520;10.248;2023-03-26T01:41:57;99529.78;;;9.64;100.00
2549;BME280;1284;53.520;10.248;2023-03-26T01:44:54;99523.50;;;9.39;100.00
2549;BME280;1284;53.520;10.248;2023-03-26T01:50:07;99525.19;;;9.10;100.00
2549;BME280;1284;53.520;10.248;2023-03-26T01:52:33;99527.16;;;9.17;100.00
2549;BME280;1284;53.520;10.248;2023-03-26T01:54:59;99533.09;;;9.43;100.00
2549;BME280;1284;53.520;10.248;2023-03-26T01:57:34;99539.00;;;9.08;100.00
2549;BME280;1284;53.520;10.248;2023-03-26T02:00:30;99533.09;;;8.92;100.00
2549;BME280;1284;53.520;10.248;2023-03-26T02:05:50;99535.91;;;9.06;100.00
2549;BME280;1284;53.520;10.248;2023-03-26T02:08:32;99537.78;;;8.59;100.00
2549;BME280;1284;53.520;10.248;2023-03-26T02:11:05;99535.94;;;8.66;100.00
2549;BME280;1284;53.520;10.248;2023-03-26T02:13:36;99533.94;;;9.00;100.00
2549;BME280;1284;53.520;10.248;2023-03-26T02:16:04;99540.97;;;9.15;100.00
2549;BME280;1284;53.520;10.248;2023-03-26T02:18:30;99549.16;;;8.85;100.00
2549;BME280;1284;53.520;10.248;2023-03-26T02:21:06;99548.91;;;9.01;100.00
2549;BME280;1284;53.520;10.248;2023-03-26T02:23:40;99529.81;;;9.09;100.00
2549;BME280;1284;53.520;10.248;2023-03-26T02:26:08;99544.03;;;8.70;100.00
2549;BME280;1284;53.520;10.248;2023-03-26T02:28:39;99537.47;;;8.67;100.00
2549;BME280;1284;53.520;10.248;2023-03-26T02:31:05;99532.28;;;8.45;100.00
2549;BME280;1284;53.520;10.248;2023-03-26T02:33:34;99532.69;;;8.90;100.00
2549;BME280;1284;53.520;10.248;2023-03-26T02:36:00;99534.47;;;9.20;100.00
2549;BME280;1284;53.520;10.248;2023-03-26T02:38:29;99543.63;;;9.12;100.00
2549;BME280;1284;53.520;10.248;2023-03-26T02:41:03;99545.94;;;9.13;100.00
2549;BME280;1284;53.520;10.248;2023-03-26T02:43:43;99540.41;;;8.95;100.00
2549;BME280;1284;53.520;10.248;2023-03-26T02:46:12;99538.56;;;9.03;100.00
2549;BME280;1284;53.520;10.248;2023-03-26T02:48:50;99543.97;;;9.10;100.00
2549;BME280;1284;53.520;10.248;2023-03-26T02:51:22;99550.34;;;8.88;100.00
2549;BME280;1284;53.520;10.248;2023-03-26T02:53:56;99550.66;;;9.30;100.00
2549;BME280;1284;53.520;10.248;2023-03-26T02:56:40;99545.13;;;9.05;100.00
2549;BME280;1284;53.520;10.248;2023-03-26T02:59:31;99538.38;;;9.29;99.77
2549;BME280;1284;53.520;10.248;2023-03-26T03:02:17;99541.22;;;8.99;100.00
2549;BME280;1284;53.520;10.248;2023-03-26T03:04:43;99546.19;;;8.97;100.00
2549;BME280;1284;53.520;10.248;2023-03-26T03:07:09;99539.78;;;9.13;100.00
2549;BME280;1284;53.520;10.248;2023-03-26T03:09:39;99541.38;;;9.21;97.41
2549;BME280;1284;53.520;10.248;2023-03-26T03:12:30;99557.16;;;8.78;99.78
2549;BME280;1284;53.520;10.248;2023-03-26T03:14:55;99549.94;;;8.89;100.00
2549;BME280;1284;53.520;10.248;2023-03-26T03:17:21;99549.97;;;8.53;99.46
2549;BME280;1284;53.520;10.248;2023-03-26T03:19:46;99545.66;;;8.41;100.00
2549;BME280;1284;53.520;10.248;2023-03-26T03:22:12;99544.84;;;8.37;100.00
2549;BME280;1284;53.520;10.248;2023-03-26T03:24:39;99540.78;;;8.54;100.00
2549;BME280;1284;53.520;10.248;2023-03-26T03:27:08;99549.69;;;8.61;100.00
2549;BME280;1284;53.520;10.248;2023-03-26T03:29:41;99557.22;;;8.19;100.00
2549;BME280;1284;53.520;10.248;2023-03-26T03:32:38;99565.25;;;8.45;100.00
2549;BME280;1284;53.520;10.248;2023-03-26T03:35:05;99547.38;;;8.60;100.00
2549;BME280;1284;53.520;10.248;2023-03-26T03:37:31;99550.88;;;8.31;100.00
2549;BME280;1284;53.520;10.248;2023-03-26T03:39:58;99540.66;;;8.40;100.00
2549;BME280;1284;53.520;10.248;2023-03-26T03:42:25;99542.41;;;8.25;100.00
2549;BME280;1284;53.520;10.248;2023-03-26T03:44:58;99550.13;;;8.30;99.23
2549;BME280;1284;53.520;10.248;2023-03-26T03:47:48;99546.69;;;8.70;97.91
2549;BME280;1284;53.520;10.248;2023-03-26T03:50:18;99549.53;;;8.84;97.52
2549;BME280;1284;53.520;10.248;2023-03-26T03:53:04;99554.91;;;8.87;96.34
2549;BME280;1284;53.520;10.248;2023-03-26T03:55:31;99555.06;;;9.01;96.21
2549;BME280;1284;53.520;10.248;2023-03-26T03:57:56;99556.06;;;8.86;96.07
2549;BME280;1284;53.520;10.248;2023-03-26T04:00:23;99563.84;;;8.98;95.54
2549;BME280;1284;53.520;10.248;2023-03-26T04:03:07;99559.44;;;8.80;95.70
2549;BME280;1284;53.520;10.248;2023-03-26T04:05:33;99549.56;;;8.91;95.67
2549;BME280;1284;53.520;10.248;2023-03-26T04:07:58;99560.47;;;9.08;94.73
2549;BME280;1284;53.520;10.248;2023-03-26T04:10:26;99547.41;;;9.07;94.78
2549;BME280;1284;53.520;10.248;2023-03-26T04:13:11;99543.41;;;8.47;97.10
2549;BME280;1284;53.520;10.248;2023-03-26T04:16:00;99550.75;;;8.53;97.68
2549;BME280;1284;53.520;10.248;2023-03-26T04:18:26;99537.56;;;8.38;97.70
2549;BME280;1284;53.520;10.248;2023-03-26T04:20:53;99541.59;;;8.58;97.55
2549;BME280;1284;53.520;10.248;2023-03-26T04:23:26;99544.78;;;8.70;97.21
2549;BME280;1284;53.520;10.248;2023-03-26T04:26:02;99544.25;;;8.54;96.75
2549;BME280;1284;53.520;10.248;2023-03-26T04:28:59;99535.41;;;8.54;98.10
2549;BME280;1284;53.520;10.248;2023-03-26T04:31:29;99536.97;;;8.55;96.94
2549;BME280;1284;53.520;10.248;2023-03-26T04:33:59;99545.28;;;8.43;97.89
2549;BME280;1284;53.520;10.248;2023-03-26T04:36:33;99540.47;;;8.59;96.71
2549;BME280;1284;53.520;10.248;2023-03-26T04:39:02;99539.72;;;8.62;96.81
2549;BME280;1284;53.520;10.248;2023-03-26T04:41:49;99542.53;;;8.76;95.63
2549;BME280;1284;53.520;10.248;2023-03-26T04:44:17;99537.31;;;8.90;94.83
2549;BME280;1284;53.520;10.248;2023-03-26T04:46:52;99536.91;;;8.88;92.12
2549;BME280;1284;53.520;10.248;2023-03-26T04:49:29;99533.41;;;8.84;93.48
2549;BME280;1284;53.520;10.248;2023-03-26T04:51:55;99535.94;;;8.66;93.35
2549;BME280;1284;53.520;10.248;2023-03-26T04:54:42;99541.31;;;8.66;93.42
2549;BME280;1284;53.520;10.248;2023-03-26T04:59:57;99541.94;;;8.53;93.10
2549;BME280;1284;53.520;10.248;2023-03-26T05:02:23;99544.84;;;8.37;94.03
2549;BME280;1284;53.520;10.248;2023-03-26T05:04:52;99538.56;;;8.59;93.01
2549;BME280;1284;53.520;10.248;2023-03-26T05:07:20;99540.22;;;8.71;92.87
2549;BME280;1284;53.520;10.248;2023-03-26T05:09:53;99544.81;;;8.74;92.06
2549;BME280;1284;53.520;10.248;2023-03-26T05:12:31;99539.69;;;8.58;92.49
2549;BME280;1284;53.520;10.248;2023-03-26T05:15:14;99544.06;;;8.37;92.68
2549;BME280;1284;53.520;10.248;2023-03-26T05:17:57;99553.53;;;8.64;91.41
2549;BME280;1284;53.520;10.248;2023-03-26T05:20:29;99551.25;;;8.29;91.60
2549;BME280;1284;53.520;10.248;2023-03-26T05:22:55;99554.50;;;8.45;91.84
2549;BME280;1284;53.520;10.248;2023-03-26T05:25:29;99553.09;;;8.58;90.73
2549;BME280;1284;53.520;10.248;2023-03-26T05:27:56;99560.94;;;8.37;91.16
2549;BME280;1284;53.520;10.248;2023-03-26T05:30:26;99547.09;;;8.05;92.21
2549;BME280;1284;53.520;10.248;2023-03-26T05:32:56;99556.91;;;7.91;92.84
2549;BME280;1284;53.520;10.248;2023-03-26T05:35:27;99551.63;;;7.98;92.09
2549;BME280;1284;53.520;10.248;2023-03-26T05:37:53;99549.97;;;8.19;91.28
2549;BME280;1284;53.520;10.248;2023-03-26T05:43:13;99546.88;;;8.17;92.31
2549;BME280;1284;53.520;10.248;2023-03-26T05:45:46;99542.59;;;8.43;90.87
2549;BME280;1284;53.520;10.248;2023-03-26T05:48:20;99550.94;;;8.34;90.92
2549;BME280;1284;53.520;10.248;2023-03-26T05:53:17;99562.03;;;8.33;90.91
2549;BME280;1284;53.520;10.248;2023-03-26T05:56:03;99555.16;;;8.35;91.95
2549;BME280;1284;53.520;10.248;2023-03-26T05:58:48;99561.84;;;8.52;91.64
2549;BME280;1284;53.520;10.248;2023-03-26T06:01:39;99563.56;;;8.34;91.86
2549;BME280;1284;53.520;10.248;2023-03-26T06:04:15;99566.66;;;8.36;92.11
2549;BME280;1284;53.520;10.248;2023-03-26T06:06:49;99572.53;;;8.48;91.73
2549;BME280;1284;53.520;10.248;2023-03-26T06:09:17;99570.81;;;8.30;92.39
2549;BME280;1284;53.520;10.248;2023-03-26T06:11:43;99575.88;;;8.38;92.62
2549;BME280;1284;53.520;10.248;2023-03-26T06:14:08;99574.00;;;8.42;92.47
2549;BME280;1284;53.520;10.248;2023-03-26T06:16:37;99576.66;;;8.39;92.66
2549;BME280;1284;53.520;10.248;2023-03-26T06:19:14;99579.06;;;8.47;92.37
2549;BME280;1284;53.520;10.248;2023-03-26T06:22:18;99587.50;;;8.49;92.73
2549;BME280;1284;53.520;10.248;2023-03-26T06:25:02;99583.00;;;8.57;92.11
2549;BME280;1284;53.520;10.248;2023-03-26T06:27:47;99583.59;;;8.43;92.30
2549;BME280;1284;53.520;10.248;2023-03-26T06:30:41;99582.28;;;8.63;91.78
2549;BME280;1284;53.520;10.248;2023-03-26T06:33:29;99581.09;;;8.57;91.77
2549;BME280;1284;53.520;10.248;2023-03-26T06:35:57;99587.78;;;8.41;93.07
2549;BME280;1284;53.520;10.248;2023-03-26T06:38:23;99584.88;;;8.53;92.99
2549;BME280;1284;53.520;10.248;2023-03-26T06:40:49;99586.00;;;8.52;93.02
2549;BME280;1284;53.520;10.248;2023-03-26T06:43:24;99588.75;;;8.59;92.90
2549;BME280;1284;53.520;10.248;2023-03-26T06:46:09;99590.97;;;8.86;92.55
2549;BME280;1284;53.520;10.248;2023-03-26T06:49:13;99598.72;;;8.95;91.09
2549;BME280;1284;53.520;10.248;2023-03-26T06:51:51;99604.44;;;8.93;91.59
2549;BME280;1284;53.520;10.248;2023-03-26T06:54:35;99599.50;;;8.99;90.43
2549;BME280;1284;53.520;10.248;2023-03-26T06:57:12;99603.50;;;9.16;90.45
2549;BME280;1284;53.520;10.248;2023-03-26T06:59:56;99603.50;;;9.16;90.12
2549;BME280;1284;53.520;10.248;2023-03-26T07:02:40;99608.66;;;9.35;89.69
2549;BME280;1284;53.520;10.248;2023-03-26T07:05:24;99606.16;;;9.16;89.66
2549;BME280;1284;53.520;10.248;2023-03-26T07:08:08;99606.22;;;9.19;89.92
2549;BME280;1284;53.520;10.248;2023-03-26T07:11:03;99608.84;;;9.16;89.21
2549;BME280;1284;53.520;10.248;2023-03-26T07:13:49;99607.31;;;9.11;88.02
2549;BME280;1284;53.520;10.248;2023-03-26T07:16:35;99600.78;;;9.12;88.52
2549;BME280;1284;53.520;10.248;2023-03-26T07:19:16;99612.44;;;9.27;87.35
2549;BME280;1284;53.520;10.248;2023-03-26T07:21:43;99603.13;;;9.14;86.56
2549;BME280;1284;53.520;10.248;2023-03-26T07:24:22;99599.75;;;9.27;84.87
2549;BME280;1284;53.520;10.248;2023-03-26T07:27:35;99598.06;;;9.52;84.81
2549;BME280;1284;53.520;10.248;2023-03-26T07:30:07;99599.31;;;9.72;84.11
2549;BME280;1284;53.520;10.248;2023-03-26T07:35:50;99595.28;;;9.42;83.26
2549;BME280;1284;53.520;10.248;2023-03-26T07:47:41;99607.22;;;9.48;80.53
2549;BME280;1284;53.520;10.248;2023-03-26T07:50:24;99602.44;;;9.27;80.24
2549;BME280;1284;53.520;10.248;2023-03-26T07:52:59;99600.47;;;9.21;78.17
2549;BME280;1284;53.520;10.248;2023-03-26T07:55:42;99599.66;;;9.13;76.99
2549;BME280;1284;53.520;10.248;2023-03-26T07:59:09;99607.94;;;8.97;73.68
2549;BME280;1284;53.520;10.248;2023-03-26T08:10:42;99611.50;;;9.56;71.63
2549;BME280;1284;53.520;10.248;2023-03-26T08:15:50;99599.88;;;9.41;71.24
2549;BME280;1284;53.520;10.248;2023-03-26T08:21:11;99615.44;;;9.69;70.75
2549;BME280;1284;53.520;10.248;2023-03-26T08:24:01;99614.72;;;9.79;70.68
2549;BME280;1284;53.520;10.248;2023-03-26T08:31:48;99618.47;;;9.64;72.07
2549;BME280;1284;53.520;10.248;2023-03-26T08:34:14;99607.09;;;9.84;71.83
2549;BME280;1284;53.520;10.248;2023-03-26T08:36:40;99613.69;;;9.97;70.60
2549;BME280;1284;53.520;10.248;2023-03-26T08:39:05;99612.28;;;10.18;68.24
2549;BME280;1284;53.520;10.248;2023-03-26T08:42:03;99612.69;;;10.20;68.98
2549;BME280;1284;53.520;10.248;2023-03-26T08:50:26;99618.22;;;10.62;67.49
2549;BME280;1284;53.520;10.248;2023-03-26T08:53:09;99619.81;;;10.73;66.54
2549;BME280;1284;53.520;10.248;2023-03-26T09:01:11;99622.81;;;10.54;64.70
2549;BME280;1284;53.520;10.248;2023-03-26T09:26:26;99611.03;;;11.78;61.26
2549;BME280;1284;53.520;10.248;2023-03-26T09:34:55;99612.94;;;11.43;58.51
2549;BME280;1284;53.520;10.248;2023-03-26T09:40:15;99622.19;;;11.63;58.81
2549;BME280;1284;53.520;10.248;2023-03-26T09:48:00;99631.66;;;13.65;55.41
2549;BME280;1284;53.520;10.248;2023-03-26T09:56:03;99640.06;;;13.78;51.54
2549;BME280;1284;53.520;10.248;2023-03-26T10:01:43;99637.78;;;13.25;52.27
2549;BME280;1284;53.520;10.248;2023-03-26T10:16:02;99638.44;;;14.21;51.16
2549;BME280;1284;53.520;10.248;2023-03-26T10:21:17;99647.84;;;13.72;51.65
2549;BME280;1284;53.520;10.248;2023-03-26T10:24:01;99642.19;;;13.56;51.66
2549;BME280;1284;53.520;10.248;2023-03-26T10:32:14;99648.59;;;12.49;53.34
2549;BME280;1284;53.520;10.248;2023-03-26T10:35:25;99650.19;;;12.36;53.18
2549;BME280;1284;53.520;10.248;2023-03-26T10:43:23;99635.16;;;13.18;52.44
2549;BME280;1284;53.520;10.248;2023-03-26T10:51:20;99634.81;;;14.68;48.51
2549;BME280;1284;53.520;10.248;2023-03-26T10:53:53;99642.81;;;14.48;48.74
2549;BME280;1284;53.520;10.248;2023-03-26T10:56:51;99648.53;;;14.20;49.87
2549;BME280;1284;53.520;10.248;2023-03-26T10:59:17;99640.81;;;13.78;50.35
2549;BME280;1284;53.520;10.248;2023-03-26T11:07:48;99640.41;;;13.83;52.08
2549;BME280;1284;53.520;10.248;2023-03-26T11:26:56;99623.25;;;14.64;48.75
2549;BME280;1284;53.520;10.248;2023-03-26T11:29:43;99634.50;;;14.63;48.52
2549;BME280;1284;53.520;10.248;2023-03-26T11:35:06;99624.22;;;15.07;48.46
2549;BME280;1284;53.520;10.248;2023-03-26T11:37:53;99635.53;;;15.29;48.11
2549;BME280;1284;53.520;10.248;2023-03-26T11:40:28;99625.06;;;15.54;46.44
2549;BME280;1284;53.520;10.248;2023-03-26T11:42:59;99622.69;;;15.29;47.27
2549;BME280;1284;53.520;10.248;2023-03-26T11:45:30;99629.88;;;15.43;46.51
2549;BME280;1284;53.520;10.248;2023-03-26T11:48:07;99618.44;;;15.55;46.23
2549;BME280;1284;53.520;10.248;2023-03-26T11:50:40;99627.34;;;15.56;46.73
2549;BME280;1284;53.520;10.248;2023-03-26T11:53:14;99622.00;;;15.52;46.74
2549;BME280;1284;53.520;10.248;2023-03-26T11:55:45;99621.75;;;15.43;47.21
2549;BME280;1284;53.520;10.248;2023-03-26T11:58:28;99615.59;;;15.62;46.85
2549;BME280;1284;53.520;10.248;2023-03-26T12:00:56;99608.13;;;15.70;45.95
2549;BME280;1284;53.520;10.248;2023-03-26T12:03:22;99608.28;;;15.82;45.58
2549;BME280;1284;53.520;10.248;2023-03-26T12:05:50;99612.50;;;16.06;44.61
2549;BME280;1284;53.520;10.248;2023-03-26T12:08:27;99611.66;;;16.09;43.80
2549;BME280;1284;53.520;10.248;2023-03-26T12:11:09;99613.94;;;16.31;44.50
2549;BME280;1284;53.520;10.248;2023-03-26T12:13:42;99630.44;;;16.40;44.47
2549;BME280;1284;53.520;10.248;2023-03-26T12:16:11;99621.34;;;16.50;43.91
2549;BME280;1284;53.520;10.248;2023-03-26T12:18:39;99616.94;;;16.16;44.65
2549;BME280;1284;53.520;10.248;2023-03-26T12:21:13;99608.38;;;15.98;43.78
2549;BME280;1284;53.520;10.248;2023-03-26T12:23:50;99617.69;;;15.97;45.10
2549;BME280;1284;53.520;10.248;2023-03-26T12:26:21;99611.09;;;15.98;44.96
2549;BME280;1284;53.520;10.248;2023-03-26T12:28:54;99612.53;;;16.03;44.46
2549;BME280;1284;53.520;10.248;2023-03-26T12:31:20;99614.00;;;16.07;44.55
2549;BME280;1284;53.520;10.248;2023-03-26T12:34:28;99615.78;;;16.37;43.41
2549;BME280;1284;53.520;10.248;2023-03-26T12:36:56;99618.69;;;16.46;43.36
2549;BME280;1284;53.520;10.248;2023-03-26T12:39:33;99614.28;;;16.13;44.92
2549;BME280;1284;53.520;10.248;2023-03-26T12:42:01;99612.16;;;16.04;44.92
2549;BME280;1284;53.520;10.248;2023-03-26T12:44:34;99613.38;;;16.00;43.67
2549;BME280;1284;53.520;10.248;2023-03-26T12:47:21;99612.84;;;16.08;44.46
2549;BME280;1284;53.520;10.248;2023-03-26T12:49:48;99611.84;;;16.18;44.16
2549;BME280;1284;53.520;10.248;2023-03-26T12:52:49;99610.75;;;16.16;44.87
2549;BME280;1284;53.520;10.248;2023-03-26T13:00:59;99607.72;;;16.10;44.45
2549;BME280;1284;53.520;10.248;2023-03-26T13:03:57;99605.59;;;16.21;44.35
2549;BME280;1284;53.520;10.248;2023-03-26T13:06:38;99615.00;;;16.37;44.53
2549;BME280;1284;53.520;10.248;2023-03-26T13:20:20;99604.06;;;16.20;43.31
2549;BME280;1284;53.520;10.248;2023-03-26T13:23:11;99607.06;;;16.06;43.25
2549;BME280;1284;53.520;10.248;2023-03-26T13:25:53;99602.44;;;16.03;42.98
2549;BME280;1284;53.520;10.248;2023-03-26T13:31:38;99601.28;;;16.04;43.03
2549;BME280;1284;53.520;10.248;2023-03-26T13:42:37;99597.09;;;16.00;44.66
2549;BME280;1284;53.520;10.248;2023-03-26T13:48:15;99596.91;;;15.68;44.55
2549;BME280;1284;53.520;10.248;2023-03-26T13:50:48;99600.25;;;15.75;44.21
2549;BME280;1284;53.520;10.248;2023-03-26T13:53:17;99585.59;;;15.92;43.64
2549;BME280;1284;53.520;10.248;2023-03-26T13:55:52;99597.63;;;16.11;43.67
2549;BME280;1284;53.520;10.248;2023-03-26T14:01:29;99599.88;;;16.16;43.59
2549;BME280;1284;53.520;10.248;2023-03-26T14:25:55;99603.22;;;17.14;41.94
2549;BME280;1284;53.520;10.248;2023-03-26T14:28:42;99602.81;;;17.32;41.48
2549;BME280;1284;53.520;10.248;2023-03-26T14:31:57;99599.97;;;17.20;41.11
2549;BME280;1284;53.520;10.248;2023-03-26T14:40:47;99612.41;;;17.21;42.36
2549;BME280;1284;53.520;10.248;2023-03-26T14:49:15;99605.69;;;17.25;42.24
2549;BME280;1284;53.520;10.248;2023-03-26T14:54:13;99603.91;;;17.19;42.27
2549;BME280;1284;53.520;10.248;2023-03-26T15:13:21;99598.53;;;16.44;44.01
2549;BME280;1284;53.520;10.248;2023-03-26T15:19:11;99603.06;;;16.31;43.61
2549;BME280;1284;53.520;10.248;2023-03-26T15:27:35;99612.94;;;15.59;44.41
2549;BME280;1284;53.520;10.248;2023-03-26T15:39:25;99612.91;;;15.35;45.06
2549;BME280;1284;53.520;10.248;2023-03-26T15:47:36;99601.72;;;15.33;44.48
2549;BME280;1284;53.520;10.248;2023-03-26T15:50:28;99608.72;;;15.58;44.15
2549;BME280;1284;53.520;10.248;2023-03-26T15:53:20;99615.56;;;15.39;44.70
2549;BME280;1284;53.520;10.248;2023-03-26T15:56:06;99604.84;;;15.32;44.63
2549;BME280;1284;53.520;10.248;2023-03-26T15:58:43;99611.84;;;15.29;45.11
2549;BME280;1284;53.520;10.248;2023-03-26T16:01:25;99609.78;;;15.37;44.55
2549;BME280;1284;53.520;10.248;2023-03-26T16:06:59;99618.34;;;15.35;45.08
2549;BME280;1284;53.520;10.248;2023-03-26T16:17:16;99621.88;;;15.09;46.19
2549;BME280;1284;53.520;10.248;2023-03-26T16:22:15;99621.81;;;14.86;45.43
2549;BME280;1284;53.520;10.248;2023-03-26T16:25:24;99628.19;;;14.73;44.45
2549;BME280;1284;53.520;10.248;2023-03-26T16:30:33;99628.88;;;14.80;45.12
2549;BME280;1284;53.520;10.248;2023-03-26T16:33:21;99631.97;;;14.48;44.48
2549;BME280;1284;53.520;10.248;2023-03-26T16:38:47;99639.41;;;14.71;45.10
2549;BME280;1284;53.520;10.248;2023-03-26T16:41:22;99641.88;;;14.62;46.00
2549;BME280;1284;53.520;10.248;2023-03-26T16:48:55;99638.25;;;14.05;46.28
2549;BME280;1284;53.520;10.248;2023-03-26T16:56:48;99644.22;;;13.89;46.80
2549;BME280;1284;53.520;10.248;2023-03-26T16:59:46;99658.22;;;13.77;47.78
2549;BME280;1284;53.520;10.248;2023-03-26T17:05:19;99660.69;;;13.61;47.93
2549;BME280;1284;53.520;10.248;2023-03-26T17:08:01;99667.75;;;13.48;48.45
2549;BME280;1284;53.520;10.248;2023-03-26T17:13:07;99676.00;;;13.30;49.18
2549;BME280;1284;53.520;10.248;2023-03-26T17:15:43;99673.69;;;13.29;49.04
2549;BME280;1284;53.520;10.248;2023-03-26T17:18:29;99676.41;;;13.29;48.76
2549;BME280;1284;53.520;10.248;2023-03-26T17:21:10;99669.38;;;13.38;49.47
2549;BME280;1284;53.520;10.248;2023-03-26T17:29:25;99679.28;;;12.94;49.92
2549;BME280;1284;53.520;10.248;2023-03-26T17:32:11;99683.53;;;12.91;50.27
2549;BME280;1284;53.520;10.248;2023-03-26T17:44:48;99701.41;;;12.60;50.95
2549;BME280;1284;53.520;10.248;2023-03-26T17:47:21;99702.97;;;12.54;50.78
2549;BME280;1284;53.520;10.248;2023-03-26T17:49:51;99707.59;;;12.57;50.80
2549;BME280;1284;53.520;10.248;2023-03-26T17:52:47;99713.78;;;12.54;51.27
2549;BME280;1284;53.520;10.248;2023-03-26T17:55:17;99712.94;;;12.75;51.00
2549;BME280;1284;53.520;10.248;2023-03-26T17:57:47;99730.69;;;12.76;50.68
2549;BME280;1284;53.520;10.248;2023-03-26T18:00:22;99722.97;;;12.75;50.60
2549;BME280;1284;53.520;10.248;2023-03-26T18:03:19;99723.78;;;12.72;50.90
2549;BME280;1284;53.520;10.248;2023-03-26T18:05:46;99729.59;;;12.59;50.86
2549;BME280;1284;53.520;10.248;2023-03-26T18:13:43;99731.16;;;12.50;50.81
2549;BME280;1284;53.520;10.248;2023-03-26T18:16:17;99743.09;;;12.59;51.25
2549;BME280;1284;53.520;10.248;2023-03-26T18:18:53;99742.38;;;12.48;51.81
2549;BME280;1284;53.520;10.248;2023-03-26T18:21:29;99740.81;;;12.44;51.99
2549;BME280;1284;53.520;10.248;2023-03-26T18:23:57;99750.13;;;12.29;52.38
2549;BME280;1284;53.520;10.248;2023-03-26T18:26:36;99747.03;;;12.20;53.15
2549;BME280;1284;53.520;10.248;2023-03-26T18:29:18;99757.06;;;11.88;54.01
2549;BME280;1284;53.520;10.248;2023-03-26T18:31:45;99756.28;;;11.91;54.69
2549;BME280;1284;53.520;10.248;2023-03-26T18:34:14;99756.31;;;12.01;54.54
2549;BME280;1284;53.520;10.248;2023-03-26T18:36:45;99764.03;;;11.92;54.53
2549;BME280;1284;53.520;10.248;2023-03-26T18:39:12;99760.91;;;11.83;55.20
2549;BME280;1284;53.520;10.248;2023-03-26T18:41:38;99772.78;;;11.40;56.21
2549;BME280;1284;53.520;10.248;2023-03-26T18:44:16;99772.44;;;11.59;56.18
2549;BME280;1284;53.520;10.248;2023-03-26T18:46:43;99784.75;;;11.60;56.54
2549;BME280;1284;53.520;10.248;2023-03-26T18:49:11;99767.00;;;11.45;56.85
2549;BME280;1284;53.520;10.248;2023-03-26T18:51:38;99780.13;;;11.57;56.07
2549;BME280;1284;53.520;10.248;2023-03-26T18:54:05;99774.72;;;11.53;56.34
2549;BME280;1284;53.520;10.248;2023-03-26T18:56:35;99775.44;;;11.29;57.63
2549;BME280;1284;53.520;10.248;2023-03-26T18:59:03;99782.72;;;11.25;57.62
2549;BME280;1284;53.520;10.248;2023-03-26T19:01:31;99788.56;;;11.38;57.75
2549;BME280;1284;53.520;10.248;2023-03-26T19:04:00;99786.66;;;11.52;56.79
2549;BME280;1284;53.520;10.248;2023-03-26T19:06:29;99784.34;;;11.51;56.98
2549;BME280;1284;53.520;10.248;2023-03-26T19:09:01;99795.09;;;11.33;57.71
2549;BME280;1284;53.520;10.248;2023-03-26T19:11:30;99797.31;;;11.10;57.53
2549;BME280;1284;53.520;10.248;2023-03-26T19:14:05;99803.78;;;10.92;57.86
2549;BME280;1284;53.520;10.248;2023-03-26T19:16:31;99816.50;;;11.02;58.05
2549;BME280;1284;53.520;10.248;2023-03-26T19:19:02;99800.63;;;10.79;57.81
2549;BME280;1284;53.520;10.248;2023-03-26T19:21:31;99805.69;;;10.87;57.07
2549;BME280;1284;53.520;10.248;2023-03-26T19:23:57;99812.88;;;10.69;58.74
2549;BME280;1284;53.520;10.248;2023-03-26T19:26:22;99812.91;;;10.76;58.22
2549;BME280;1284;53.520;10.248;2023-03-26T19:28:50;99819.16;;;10.87;57.86